Time;durP1;ratioP1;P1;durP2;ratioP2;P2;SDS_P1;SDS_P2;PMS_P1;PMS_P2;Temp;Humidity;BMP_temperature;BMP_pressure;BME280_temperature;BME280_humidity;BME280_pressure;Samples;Min_cycle;Max_cycle;Signal;HPM_P1;HPM_P2
2022/03/14 00:00:43;;;;;;;11.35;7.60;;;;;;;7.12;41.67;100317.19;5021869;28;20120;-83
2022/03/14 00:03:10;;;;;;;11.20;7.30;;;;;;;7.11;40.79;100315.47;5039672;28;20021;-83
2022/03/14 00:05:35;;;;;;;11.50;7.80;;;;;;;7.12;40.94;100319.84;5042525;28;20030;-86
2022/03/14 00:08:01;;;;;;;11.35;7.80;;;;;;;7.12;40.54;100322.50;5027136;28;20040;-85
2022/03/14 00:10:27;;;;;;;9.48;6.97;;;;;;;7.11;40.54;100318.13;5044931;28;20026;-85
2022/03/14 00:12:56;;;;;;;13.18;7.88;;;;;;;7.12;40.05;100319.84;5028306;28;20048;-85
2022/03/14 00:15:22;;;;;;;11.90;7.80;;;;;;;7.10;40.35;100322.53;5037357;28;20096;-84
2022/03/14 00:17:47;;;;;;;11.98;8.18;;;;;;;7.09;40.15;100325.19;5039821;28;20442;-85
2022/03/14 00:20:15;;;;;;;11.23;7.50;;;;;;;7.10;39.98;100327.84;5044693;28;20501;-85
2022/03/14 00:22:41;;;;;;;11.43;7.97;;;;;;;7.13;40.37;100332.25;5027081;28;20540;-85
2022/03/14 00:25:08;;;;;;;11.77;7.68;;;;;;;7.12;40.65;100322.50;5027439;28;20021;-85
2022/03/14 00:27:36;;;;;;;10.60;7.55;;;;;;;7.11;40.72;100331.38;5027829;28;20071;-84
2022/03/14 00:30:08;;;;;;;15.02;8.00;;;;;;;7.09;40.87;100330.50;5027728;28;20029;-86
2022/03/14 00:32:34;;;;;;;10.52;7.68;;;;;;;7.04;40.51;100328.81;5027942;28;20040;-85
2022/03/14 00:34:59;;;;;;;10.57;7.55;;;;;;;7.03;41.07;100329.72;5027318;28;20045;-85
2022/03/14 00:37:26;;;;;;;11.60;8.23;;;;;;;7.00;41.09;100328.88;5045109;28;20032;-85
2022/03/14 00:39:53;;;;;;;11.70;7.70;;;;;;;6.95;40.93;100331.59;5027306;28;20055;-85
2022/03/14 00:42:20;;;;;;;10.93;7.65;;;;;;;6.93;40.76;100320.16;5026351;28;20116;-85
2022/03/14 00:44:46;;;;;;;11.48;7.70;;;;;;;6.93;40.61;100326.31;5044894;28;20058;-84
2022/03/14 00:47:12;;;;;;;13.10;7.88;;;;;;;6.93;40.67;100325.44;5027468;28;20033;-85
2022/03/14 00:49:37;;;;;;;10.85;7.78;;;;;;;6.94;40.84;100327.19;5026537;28;20079;-84
2022/03/14 00:52:03;;;;;;;13.57;7.57;;;;;;;6.96;40.54;100324.53;5037502;28;20029;-85
2022/03/14 00:54:28;;;;;;;13.38;8.30;;;;;;;6.93;41.05;100328.97;5044598;28;20021;-85
2022/03/14 00:56:54;;;;;;;12.07;7.60;;;;;;;6.90;40.61;100315.75;5045733;28;20017;-85
2022/03/14 00:59:20;;;;;;;12.25;7.38;;;;;;;6.91;41.04;100333.41;5026365;28;20034;-85
2022/03/14 01:01:45;;;;;;;10.98;7.53;;;;;;;6.92;40.45;100324.56;5043977;28;20043;-85
2022/03/14 01:04:10;;;;;;;11.27;7.60;;;;;;;6.94;40.45;100329.84;5026963;28;20040;-85
2022/03/14 01:06:36;;;;;;;13.52;8.07;;;;;;;6.92;40.30;100335.19;5027371;28;20026;-85
2022/03/14 01:09:03;;;;;;;12.70;7.28;;;;;;;6.92;40.57;100339.63;5026880;28;20029;-85
2022/03/14 01:11:29;;;;;;;12.88;7.70;;;;;;;6.92;40.35;100337.84;5029218;28;20022;-85
2022/03/14 01:13:55;;;;;;;11.68;7.57;;;;;;;6.92;40.21;100336.97;5044062;28;20024;-85
2022/03/14 01:16:20;;;;;;;11.68;7.50;;;;;;;6.90;40.65;100344.06;5044762;28;20055;-85
2022/03/14 01:18:49;;;;;;;12.40;7.88;;;;;;;6.90;40.28;100350.25;5044307;28;20045;-85
2022/03/14 01:21:14;;;;;;;12.27;7.85;;;;;;;6.90;40.74;100346.72;5026552;28;20133;-86
2022/03/14 01:23:39;;;;;;;12.98;7.65;;;;;;;6.88;40.84;100345.88;5026970;28;20124;-85
2022/03/14 01:26:06;;;;;;;10.65;7.40;;;;;;;6.89;40.89;100356.47;5024955;28;20068;-84
2022/03/14 01:28:31;;;;;;;11.77;7.50;;;;;;;6.90;40.66;100350.25;5026444;28;20025;-85
2022/03/14 01:30:58;;;;;;;11.60;7.20;;;;;;;6.91;40.91;100351.13;5044528;28;20466;-85
2022/03/14 01:33:23;;;;;;;13.85;7.88;;;;;;;6.91;40.89;100359.09;5026963;28;20048;-85
2022/03/14 01:35:48;;;;;;;12.40;8.13;;;;;;;6.91;40.63;100359.97;5044272;28;20026;-84
2022/03/14 01:38:14;;;;;;;9.18;6.47;;;;;;;6.91;40.67;100359.97;5045149;28;20024;-85
2022/03/14 01:40:39;;;;;;;12.05;7.90;;;;;;;6.88;41.23;100361.81;5026044;28;20025;-85
2022/03/14 01:43:05;;;;;;;13.07;7.85;;;;;;;6.86;41.39;100367.13;5027297;28;20030;-85
2022/03/14 01:45:30;;;;;;;11.73;7.68;;;;;;;6.86;41.25;100371.53;5026216;28;20021;-85
2022/03/14 01:47:56;;;;;;;13.07;8.32;;;;;;;6.86;41.05;100371.53;5026734;28;20033;-85
2022/03/14 01:50:22;;;;;;;12.32;7.60;;;;;;;6.87;40.62;100378.63;5044145;28;20089;-85
2022/03/14 01:52:47;;;;;;;11.90;7.60;;;;;;;6.88;40.84;100377.72;5026090;28;20043;-85
2022/03/14 01:55:14;;;;;;;12.23;7.35;;;;;;;6.86;41.76;100380.38;5026345;28;20098;-85
2022/03/14 01:57:40;;;;;;;13.55;8.07;;;;;;;6.83;42.04;100383.06;5044043;28;20025;-84
2022/03/14 02:00:08;;;;;;;12.18;8.25;;;;;;;6.75;42.29;100375.19;5026472;28;20060;-85
2022/03/14 02:02:33;;;;;;;12.40;7.50;;;;;;;6.72;42.31;100380.56;5042792;28;20025;-86
2022/03/14 02:04:59;;;;;;;11.02;7.70;;;;;;;6.69;42.04;100380.59;5025836;28;20076;-85
2022/03/14 02:07:25;;;;;;;10.82;7.85;;;;;;;6.68;42.77;100389.44;5025496;28;20028;-85
2022/03/14 02:09:50;;;;;;;12.30;8.15;;;;;;;6.65;43.45;100381.56;5043878;28;20036;-85
2022/03/14 02:12:18;;;;;;;12.57;7.78;;;;;;;6.63;44.66;100383.31;5026025;28;20021;-85
2022/03/14 02:14:44;;;;;;;13.63;7.95;;;;;;;6.58;45.68;100384.25;5043559;28;20017;-85
2022/03/14 02:17:12;;;;;;;11.85;8.00;;;;;;;6.57;47.68;100386.94;5025811;28;20508;-85
2022/03/14 02:19:38;;;;;;;11.60;8.05;;;;;;;6.57;48.76;100386.94;5041902;28;20470;-85
2022/03/14 02:22:05;;;;;;;12.68;8.25;;;;;;;6.58;51.46;100396.66;5038485;28;20079;-84
2022/03/14 02:24:31;;;;;;;14.57;8.57;;;;;;;6.49;54.20;100405.59;5022661;28;20018;-84
2022/03/14 02:26:57;;;;;;;12.98;8.75;;;;;;;6.39;55.54;100403.94;5038371;28;20032;-84
2022/03/14 02:29:23;;;;;;;15.73;8.63;;;;;;;6.37;57.47;100411.91;5020085;28;20037;-84
2022/03/14 02:31:50;;;;;;;13.35;8.93;;;;;;;6.34;58.48;100410.16;5021966;28;20032;-83
2022/03/14 02:34:18;;;;;;;13.25;8.82;;;;;;;6.33;59.94;100412.84;5020869;28;20026;-84
2022/03/14 02:36:43;;;;;;;13.70;9.10;;;;;;;6.24;61.96;100414.69;5019783;28;20414;-84
2022/03/14 02:39:09;;;;;;;15.98;9.68;;;;;;;6.24;66.54;100419.09;5038080;28;20001;-84
2022/03/14 02:41:35;;;;;;;15.40;10.27;;;;;;;6.20;71.66;100409.44;5025836;28;20029;-84
2022/03/14 02:44:01;;;;;;;14.65;9.77;;;;;;;6.20;73.88;100412.97;5037371;28;20025;-83
2022/03/14 02:46:27;;;;;;;16.40;10.10;;;;;;;6.14;75.27;100405.94;5019572;28;20099;-83
2022/03/14 02:48:52;;;;;;;14.48;9.80;;;;;;;6.07;74.54;100404.25;5019439;28;20414;-82
2022/03/14 02:51:18;;;;;;;13.77;9.23;;;;;;;5.99;72.57;100408.72;5037051;28;20585;-84
2022/03/14 02:53:43;;;;;;;13.00;9.13;;;;;;;5.93;70.88;100407.88;5037315;28;20032;-84
2022/03/14 02:56:09;;;;;;;14.52;10.00;;;;;;;5.89;72.64;100411.44;5019630;28;20032;-83
2022/03/14 02:58:39;;;;;;;15.93;9.98;;;;;;;5.90;78.07;100413.19;5037448;28;20105;-84
2022/03/14 03:01:04;;;;;;;16.23;10.20;;;;;;;5.90;79.57;100421.13;5019298;28;20032;-85
2022/03/14 03:04:12;;;;;;;18.27;10.77;;;;;;;5.89;79.65;100421.16;5037503;28;20383;-85
2022/03/14 03:06:38;;;;;;;15.07;10.20;;;;;;;5.71;79.13;100425.72;5018189;28;20029;-85
2022/03/14 03:09:03;;;;;;;16.50;10.82;;;;;;;5.68;82.24;100431.94;5019069;28;20121;-85
2022/03/14 03:11:30;;;;;;;15.70;10.80;;;;;;;5.68;82.45;100431.94;5019575;28;20025;-86
2022/03/14 03:13:56;;;;;;;15.00;10.07;;;;;;;5.54;76.07;100439.09;5019394;28;20022;-86
2022/03/14 03:16:22;;;;;;;15.52;9.18;;;;;;;5.39;75.18;100442.69;5023315;28;20106;-85
2022/03/14 03:18:54;;;;;;;16.05;10.40;;;;;;;5.19;79.27;100444.59;5022132;28;20040;-84
2022/03/14 03:21:19;;;;;;;15.27;9.93;;;;;;;5.25;78.61;100454.28;5037539;28;20075;-83
2022/03/14 03:23:48;;;;;;;15.00;10.10;;;;;;;5.29;79.30;100452.47;5019201;28;20025;-85
2022/03/14 03:26:13;;;;;;;16.35;11.40;;;;;;;5.34;81.05;100455.97;5036773;28;20029;-85
2022/03/14 03:28:39;;;;;;;15.18;10.15;;;;;;;5.35;79.65;100463.03;5019258;28;20037;-85
2022/03/14 03:31:06;;;;;;;16.23;10.10;;;;;;;5.46;75.53;100466.50;5019560;28;20055;-85
2022/03/14 03:33:32;;;;;;;15.90;10.68;;;;;;;5.51;73.21;100457.66;5037684;28;20133;-84
2022/03/14 03:35:59;;;;;;;16.73;10.40;;;;;;;5.46;71.79;100466.50;5019675;28;20033;-84
2022/03/14 03:38:25;;;;;;;19.00;10.57;;;;;;;5.49;71.53;100473.53;5037601;28;20044;-83
2022/03/14 03:40:59;;;;;;;14.52;10.18;;;;;;;5.55;71.80;100476.16;5037301;28;20474;-84
2022/03/14 03:43:25;;;;;;;15.43;9.98;;;;;;;5.55;70.94;100480.56;5018849;28;20022;-85
2022/03/14 03:45:50;;;;;;;14.70;9.57;;;;;;;5.44;71.55;100480.63;5035875;28;20083;-84
2022/03/14 03:48:16;;;;;;;13.85;9.70;;;;;;;5.38;72.58;100492.16;5019365;28;20112;-85
2022/03/14 03:50:41;;;;;;;13.93;9.63;;;;;;;5.32;74.03;100489.53;5019350;28;20480;-85
2022/03/14 03:53:07;;;;;;;20.20;12.18;;;;;;;5.12;85.70;100498.44;5036542;28;20017;-85
2022/03/14 03:55:33;;;;;;;19.45;12.65;;;;;;;5.12;89.76;100498.44;5018691;28;20026;-84
2022/03/14 03:57:58;;;;;;;18.13;11.93;;;;;;;5.10;92.07;100505.53;5036947;28;20049;-83
2022/03/14 04:00:24;;;;;;;18.45;12.20;;;;;;;4.96;88.14;100509.09;5036996;28;20505;-84
2022/03/14 04:02:50;;;;;;;18.58;12.45;;;;;;;5.01;89.76;100512.59;5036337;28;20026;-83
2022/03/14 04:05:20;;;;;;;19.40;12.98;;;;;;;4.96;89.55;100518.78;5036637;28;20060;-84
2022/03/14 04:07:46;;;;;;;19.17;12.65;;;;;;;5.00;91.95;100526.72;5018744;28;20390;-84
2022/03/14 04:10:15;;;;;;;19.33;13.30;;;;;;;4.85;92.47;100534.69;5036381;28;20025;-84
2022/03/14 04:12:44;;;;;;;21.08;13.70;;;;;;;4.78;93.79;100533.81;5036952;28;20044;-83
2022/03/14 04:15:10;;;;;;;21.80;13.95;;;;;;;4.77;95.46;100543.53;5018255;28;20104;-84
2022/03/14 04:17:38;;;;;;;21.95;14.10;;;;;;;4.74;94.39;100543.53;5036224;28;20021;-84
2022/03/14 04:20:11;;;;;;;19.17;13.27;;;;;;;4.59;97.42;100547.06;5018220;28;20135;-84
2022/03/14 04:22:38;;;;;;;18.67;12.77;;;;;;;4.41;99.70;100561.19;5017783;28;20033;-84
2022/03/14 04:25:05;;;;;;;19.35;13.68;;;;;;;4.35;100.00;100555.03;5035332;28;20026;-84
2022/03/14 04:27:31;;;;;;;19.58;13.07;;;;;;;4.43;99.47;100562.09;5018674;28;20405;-84
2022/03/14 04:29:57;;;;;;;20.02;13.10;;;;;;;4.25;98.19;100558.56;5017692;28;20501;-83
2022/03/14 04:32:23;;;;;;;20.23;13.98;;;;;;;4.18;100.00;100567.34;5017687;28;20025;-84
2022/03/14 04:34:49;;;;;;;22.92;14.80;;;;;;;4.05;100.00;100567.34;5017879;28;20045;-82
2022/03/14 04:37:14;;;;;;;24.40;15.02;;;;;;;4.02;100.00;100572.63;5017633;28;20017;-83
2022/03/14 04:39:40;;;;;;;23.98;15.82;;;;;;;4.06;100.00;100571.75;5017828;28;20022;-84
2022/03/14 04:42:07;;;;;;;23.88;15.35;;;;;;;4.02;100.00;100577.91;5035713;28;20026;-84
2022/03/14 04:44:32;;;;;;;22.42;16.27;;;;;;;3.99;100.00;100575.28;5017311;28;20449;-84
2022/03/14 04:46:57;;;;;;;26.38;16.70;;;;;;;3.90;100.00;100579.66;5017583;28;20478;-84
2022/03/14 04:49:23;;;;;;;21.70;14.93;;;;;;;3.89;100.00;100585.78;5018055;28;20021;-84
2022/03/14 04:51:50;;;;;;;25.17;16.75;;;;;;;3.94;100.00;100590.22;5036079;28;20375;-84
2022/03/14 04:54:15;;;;;;;26.65;16.42;;;;;;;4.00;100.00;100591.13;5017513;28;20021;-83
2022/03/14 04:56:40;;;;;;;25.00;17.13;;;;;;;4.06;100.00;100594.66;5017618;28;20075;-84
2022/03/14 04:59:06;;;;;;;28.17;17.67;;;;;;;4.07;100.00;100597.28;5035290;28;20490;-84
2022/03/14 05:01:31;;;;;;;26.85;17.23;;;;;;;4.13;100.00;100596.41;5017440;28;20028;-84
2022/03/14 05:03:56;;;;;;;29.08;18.00;;;;;;;4.11;100.00;100595.53;5034957;28;20359;-84
2022/03/14 05:06:22;;;;;;;26.98;17.70;;;;;;;4.15;100.00;100604.38;5017050;28;20079;-84
2022/03/14 05:08:48;;;;;;;28.75;18.40;;;;;;;4.15;100.00;100601.72;5017531;28;20112;-84
2022/03/14 05:11:14;;;;;;;25.85;17.95;;;;;;;4.19;100.00;100606.13;5017239;28;20132;-83
2022/03/14 05:13:41;;;;;;;28.85;18.75;;;;;;;4.17;100.00;100618.47;5016870;28;20032;-83
2022/03/14 05:16:07;;;;;;;27.73;17.95;;;;;;;4.20;100.00;100621.13;5016762;28;20021;-84
2022/03/14 05:18:34;;;;;;;29.27;18.52;;;;;;;4.18;100.00;100626.38;5016716;28;20021;-83
2022/03/14 05:20:59;;;;;;;31.77;18.85;;;;;;;4.26;100.00;100629.03;5018036;28;20025;-85
2022/03/14 05:23:25;;;;;;;32.05;18.73;;;;;;;4.37;100.00;100631.72;5019791;28;20044;-84
2022/03/14 05:25:50;;;;;;;31.58;18.40;;;;;;;4.44;100.00;100636.13;5019071;28;20136;-83
2022/03/14 05:28:15;;;;;;;34.08;20.55;;;;;;;4.48;100.00;100629.09;5018648;28;20025;-83
2022/03/14 05:30:41;;;;;;;31.63;19.38;;;;;;;4.52;100.00;100644.06;5017840;28;20025;-84
2022/03/14 05:33:06;;;;;;;35.03;19.95;;;;;;;4.57;100.00;100644.94;5018708;28;20080;-85
2022/03/14 05:35:31;;;;;;;35.47;21.02;;;;;;;4.73;100.00;100641.44;5017355;28;20028;-83
2022/03/14 05:37:57;;;;;;;38.65;21.73;;;;;;;4.67;100.00;100640.53;5016943;28;20072;-83
2022/03/14 05:40:22;;;;;;;35.85;20.70;;;;;;;4.72;100.00;100652.88;5034542;28;20128;-83
2022/03/14 05:42:49;;;;;;;35.55;20.48;;;;;;;4.77;100.00;100653.75;5033744;28;20029;-82
2022/03/14 05:45:16;;;;;;;37.05;21.58;;;;;;;4.74;100.00;100648.50;5034282;28;20075;-83
2022/03/14 05:47:42;;;;;;;38.13;22.48;;;;;;;4.74;100.00;100652.00;5034340;28;20548;-83
2022/03/14 05:50:08;;;;;;;41.67;22.20;;;;;;;4.80;100.00;100652.00;5028359;28;20029;-83
2022/03/14 05:52:33;;;;;;;38.80;21.52;;;;;;;4.79;100.00;100655.53;5052680;28;20029;-85
2022/03/14 05:54:59;;;;;;;37.35;22.25;;;;;;;4.83;100.00;100663.47;5029737;28;20017;-85
2022/03/14 05:57:24;;;;;;;38.50;22.35;;;;;;;4.84;100.00;100660.84;5022282;28;20017;-85
2022/03/14 05:59:50;;;;;;;40.28;22.20;;;;;;;4.88;100.00;100664.34;5040283;28;20028;-85
2022/03/14 06:02:22;;;;;;;39.22;21.27;;;;;;;4.83;100.00;100664.34;5041240;28;20025;-85
2022/03/14 06:04:49;;;;;;;38.67;22.52;;;;;;;4.84;100.00;100673.19;5039701;28;20028;-85
2022/03/14 06:07:14;;;;;;;35.03;21.23;;;;;;;4.97;100.00;100669.66;5037984;28;20033;-85
2022/03/14 06:09:46;;;;;;;39.63;21.48;;;;;;;4.84;100.00;100682.00;5038304;28;20391;-85
2022/03/14 06:12:12;;;;;;;39.40;22.13;;;;;;;4.79;100.00;100681.97;5021623;28;20112;-83
2022/03/14 06:14:37;;;;;;;41.00;24.10;;;;;;;4.77;100.00;100683.75;5034967;28;20033;-84
2022/03/14 06:17:20;;;;;;;39.40;23.73;;;;;;;4.78;100.00;100692.56;5017576;28;20026;-84
2022/03/14 06:20:04;;;;;;;40.75;22.60;;;;;;;4.79;100.00;100686.41;5034651;28;20029;-84
2022/03/14 06:22:41;;;;;;;38.40;22.40;;;;;;;4.78;100.00;100696.13;5034030;28;20033;-82
2022/03/14 06:25:17;;;;;;;43.55;23.70;;;;;;;4.75;100.00;100701.41;5017109;28;20030;-82
2022/03/14 06:27:51;;;;;;;43.45;25.00;;;;;;;4.75;100.00;100706.69;5016233;28;20041;-82
2022/03/14 06:30:26;;;;;;;;;;;;;;;4.72;100.00;100711.06;5018462;28;20021;-84
2022/03/14 06:32:54;;;;;;;43.80;25.13;;;;;;;4.71;100.00;100722.56;5017044;28;19917;-83
2022/03/14 06:35:20;;;;;;;49.70;26.60;;;;;;;4.70;100.00;100724.31;5028070;22;20005;-81
2022/03/14 06:37:46;;;;;;;49.22;25.05;;;;;;;4.72;100.00;100730.50;5037741;28;20068;-81
2022/03/14 06:40:12;;;;;;;50.33;26.73;;;;;;;4.71;100.00;100733.16;5055952;28;20021;-80
2022/03/14 06:42:40;;;;;;;51.22;27.95;;;;;;;4.71;100.00;100726.09;5055802;28;20075;-80
2022/03/14 06:45:05;;;;;;;51.53;27.30;;;;;;;4.75;100.00;100735.78;5055302;28;20017;-80
2022/03/14 06:47:32;;;;;;;55.00;29.02;;;;;;;4.75;100.00;100746.38;5037577;28;20039;-78
2022/03/14 06:49:58;;;;;;;55.92;30.63;;;;;;;4.77;100.00;100739.31;5037267;28;20025;-80
2022/03/14 06:52:23;;;;;;;57.45;31.70;;;;;;;4.79;100.00;100744.63;5062654;28;20036;-80
2022/03/14 06:54:48;;;;;;;56.08;31.33;;;;;;;4.79;100.00;100745.47;5054906;28;20013;-80
2022/03/14 06:57:13;;;;;;;65.53;31.77;;;;;;;4.85;100.00;100751.66;5054625;28;20025;-80
2022/03/14 06:59:39;;;;;;;62.92;33.30;;;;;;;4.89;100.00;100748.16;5054622;28;20033;-79
2022/03/14 07:02:05;;;;;;;66.93;33.22;;;;;;;4.97;100.00;100764.06;5055142;28;20021;-80
2022/03/14 07:04:31;;;;;;;64.75;33.58;;;;;;;5.06;100.00;100763.16;5036541;28;20021;-78
2022/03/14 07:06:56;;;;;;;73.30;35.78;;;;;;;5.06;100.00;100763.16;5035920;28;20086;-79
2022/03/14 07:09:22;;;;;;;71.43;35.75;;;;;;;5.08;100.00;100766.69;5036573;28;20067;-78
2022/03/14 07:11:51;;;;;;;74.90;36.17;;;;;;;5.09;100.00;100764.06;5054742;28;20025;-78
2022/03/14 07:14:21;;;;;;;83.85;41.10;;;;;;;5.09;100.00;100773.75;5036650;28;20055;-78
2022/03/14 07:16:47;;;;;;;77.28;39.13;;;;;;;5.10;100.00;100771.09;5036866;28;20027;-80
2022/03/14 07:19:12;;;;;;;73.03;37.70;;;;;;;5.09;100.00;100784.34;5036524;28;20102;-80
2022/03/14 07:21:38;;;;;;;79.70;40.17;;;;;;;5.13;100.00;100778.16;5039950;28;20064;-79
2022/03/14 07:24:04;;;;;;;69.60;35.15;;;;;;;5.14;100.00;100774.63;5058803;28;20025;-80
2022/03/14 07:26:29;;;;;;;63.85;33.08;;;;;;;5.17;100.00;100772.00;5040963;28;20036;-80
2022/03/14 07:28:54;;;;;;;63.17;32.25;;;;;;;5.16;100.00;100775.53;5058278;28;20028;-78
2022/03/14 07:31:20;;;;;;;54.65;28.98;;;;;;;5.28;100.00;100774.66;5039567;28;20031;-78
2022/03/14 07:33:47;;;;;;;52.05;28.38;;;;;;;5.32;100.00;100772.88;5039599;28;20079;-78
2022/03/14 07:36:13;;;;;;;52.67;27.08;;;;;;;5.27;100.00;100785.22;5057534;28;20470;-79
2022/03/14 07:38:38;;;;;;;47.30;25.85;;;;;;;5.25;100.00;100786.13;5039280;28;20017;-80
2022/03/14 07:41:03;;;;;;;49.75;26.30;;;;;;;5.30;100.00;100785.25;5039103;28;20017;-80
2022/03/14 07:43:29;;;;;;;42.25;23.48;;;;;;;5.29;100.00;100783.47;5040213;28;20111;-80
2022/03/14 07:45:54;;;;;;;39.85;22.35;;;;;;;5.30;100.00;100787.88;5058350;28;20025;-80
2022/03/14 07:48:19;;;;;;;41.70;22.17;;;;;;;5.33;100.00;100785.25;5058090;28;20025;-80
2022/03/14 07:50:45;;;;;;;38.53;21.52;;;;;;;5.29;100.00;100791.41;5040242;28;20045;-80
2022/03/14 07:53:10;;;;;;;35.78;20.52;;;;;;;5.32;100.00;100789.66;5058501;28;20091;-80
2022/03/14 07:55:36;;;;;;;37.83;20.23;;;;;;;5.28;100.00;100789.66;5058731;28;20021;-80
2022/03/14 07:58:02;;;;;;;37.03;20.30;;;;;;;5.33;100.00;100788.78;5039065;28;20037;-81
2022/03/14 08:00:27;;;;;;;34.60;20.63;;;;;;;5.38;100.00;100790.53;5056829;28;20518;-79
2022/03/14 08:02:52;;;;;;;38.85;21.30;;;;;;;5.38;100.00;100793.19;5056621;28;20139;-79
2022/03/14 08:05:24;;;;;;;37.15;20.10;;;;;;;5.41;100.00;100786.09;5056839;28;20027;-81
2022/03/14 08:07:49;;;;;;;37.42;20.23;;;;;;;5.46;100.00;100784.34;5040138;28;20063;-80
2022/03/14 08:10:17;;;;;;;37.97;20.58;;;;;;;5.53;100.00;100776.41;5038715;28;20025;-79
2022/03/14 08:12:53;;;;;;;36.70;20.42;;;;;;;5.53;100.00;100779.94;5038226;28;20028;-78
2022/03/14 08:15:30;;;;;;;34.72;19.75;;;;;;;5.51;100.00;100780.81;5038227;28;20032;-79
2022/03/14 08:17:58;;;;;;;38.10;20.02;;;;;;;5.58;100.00;100780.81;5037981;28;20032;-78
2022/03/14 08:20:26;;;;;;;36.65;19.70;;;;;;;5.63;100.00;100785.22;5038712;28;20053;-79
2022/03/14 08:22:52;;;;;;;33.17;19.05;;;;;;;5.60;100.00;100786.09;5057108;28;20025;-80
2022/03/14 08:25:19;;;;;;;34.53;18.98;;;;;;;5.69;100.00;100791.41;5056931;28;20025;-79
2022/03/14 08:27:45;;;;;;;34.08;19.10;;;;;;;5.65;100.00;100794.03;5056535;28;20540;-80
2022/03/14 08:30:11;;;;;;;36.63;19.77;;;;;;;5.76;100.00;100794.03;5056603;28;20021;-79
2022/03/14 08:32:39;;;;;;;36.08;19.83;;;;;;;5.85;100.00;100799.28;5038783;28;20048;-80
2022/03/14 08:35:09;;;;;;;33.83;19.83;;;;;;;5.84;100.00;100796.66;5056590;28;20021;-80
2022/03/14 08:37:42;;;;;;;36.40;20.58;;;;;;;5.87;100.00;100792.25;5056547;28;20040;-79
2022/03/14 08:40:09;;;;;;;35.13;20.25;;;;;;;5.89;100.00;100798.41;5056348;28;20040;-80
2022/03/14 08:42:35;;;;;;;33.45;20.63;;;;;;;5.91;100.00;100801.94;5056152;28;20108;-80
2022/03/14 08:45:02;;;;;;;32.92;19.33;;;;;;;5.90;100.00;100813.41;5038085;28;20057;-80
2022/03/14 08:47:28;;;;;;;34.95;20.65;;;;;;;5.84;100.00;100815.22;5038065;28;20120;-79
2022/03/14 08:49:53;;;;;;;39.67;21.52;;;;;;;5.93;100.00;100812.53;5056371;28;20130;-79
2022/03/14 08:52:18;;;;;;;32.10;19.27;;;;;;;5.90;100.00;100817.88;5056314;28;20082;-79
2022/03/14 08:54:44;;;;;;;34.60;20.65;;;;;;;5.85;100.00;100820.50;5038217;28;20013;-79
2022/03/14 08:57:09;;;;;;;34.58;19.83;;;;;;;5.94;100.00;100822.25;5038743;28;20025;-80
2022/03/14 08:59:35;;;;;;;35.08;19.42;;;;;;;6.04;100.00;100823.13;5056155;28;20024;-79
2022/03/14 09:02:01;;;;;;;33.88;19.88;;;;;;;6.03;100.00;100826.69;5039129;28;20367;-81
2022/03/14 09:04:26;;;;;;;35.05;20.80;;;;;;;6.04;100.00;100823.13;5038876;28;20028;-81
2022/03/14 09:06:51;;;;;;;35.63;20.75;;;;;;;6.06;100.00;100826.63;5057676;28;20053;-81
2022/03/14 09:09:18;;;;;;;37.80;20.33;;;;;;;6.06;100.00;100824.00;5038442;28;20024;-78
2022/03/14 09:11:44;;;;;;;32.30;19.20;;;;;;;6.05;100.00;100824.91;5055298;28;20036;-79
2022/03/14 09:14:10;;;;;;;35.05;20.40;;;;;;;6.14;100.00;100829.31;5037126;28;20024;-80
2022/03/14 09:16:35;;;;;;;34.42;19.98;;;;;;;6.07;100.00;100833.75;5055395;28;20385;-80
2022/03/14 09:19:01;;;;;;;34.05;18.50;;;;;;;6.13;100.00;100828.41;5037884;28;20478;-80
2022/03/14 09:21:27;;;;;;;31.98;18.52;;;;;;;6.25;100.00;100827.53;5056861;28;20067;-80
2022/03/14 09:23:53;;;;;;;27.95;17.67;;;;;;;6.22;100.00;100837.25;5036576;28;20075;-78
2022/03/14 09:26:18;;;;;;;27.20;16.35;;;;;;;6.18;100.00;100833.75;5054079;28;20020;-78
2022/03/14 09:28:44;;;;;;;29.73;17.10;;;;;;;6.19;100.00;100831.94;5054056;28;20025;-79
2022/03/14 09:31:13;;;;;;;27.08;15.23;;;;;;;6.21;100.00;100832.84;5054015;28;20027;-79
2022/03/14 09:33:39;;;;;;;27.20;15.73;;;;;;;6.23;100.00;100839.03;5054452;28;20048;-78
2022/03/14 09:36:06;;;;;;;30.65;16.20;;;;;;;6.23;100.00;100839.91;5036869;28;20378;-80
2022/03/14 09:38:31;;;;;;;26.73;15.05;;;;;;;6.28;100.00;100839.88;5037192;28;20040;-79
2022/03/14 09:41:01;;;;;;;21.17;12.88;;;;;;;6.27;100.00;100846.06;5055006;28;20028;-80
2022/03/14 09:43:28;;;;;;;25.58;14.13;;;;;;;6.21;100.00;100852.25;5054300;28;20433;-80
2022/03/14 09:45:55;;;;;;;17.05;10.43;;;;;;;6.06;100.00;100853.16;5037619;28;20074;-79
2022/03/14 09:48:22;;;;;;;18.20;10.57;;;;;;;6.00;100.00;100861.13;5037392;28;20056;-80
2022/03/14 09:50:48;;;;;;;18.17;11.20;;;;;;;5.96;100.00;100854.06;5037696;28;20025;-80
2022/03/14 09:53:15;;;;;;;17.95;11.43;;;;;;;5.92;100.00;100859.38;5037631;28;20046;-78
2022/03/14 09:55:46;;;;;;;19.40;11.30;;;;;;;5.94;100.00;100854.06;5054534;28;20107;-78
2022/03/14 09:58:19;;;;;;;19.65;11.15;;;;;;;5.89;100.00;100867.34;5054525;28;20035;-78
2022/03/14 10:00:46;;;;;;;20.23;11.43;;;;;;;5.92;100.00;100859.38;5036583;28;20090;-78
2022/03/14 10:03:13;;;;;;;21.45;12.13;;;;;;;5.93;100.00;100858.47;5054422;28;20037;-78
2022/03/14 10:05:39;;;;;;;19.45;10.98;;;;;;;5.95;100.00;100863.81;5036599;28;20386;-79
2022/03/14 10:08:05;;;;;;;20.75;11.65;;;;;;;5.95;100.00;100869.09;5054337;28;20078;-78
2022/03/14 10:10:31;;;;;;;18.83;11.32;;;;;;;5.91;100.00;100870.88;5054174;28;20392;-78
2022/03/14 10:12:59;;;;;;;21.85;12.77;;;;;;;5.97;100.00;100869.97;5036397;28;20028;-79
2022/03/14 10:15:27;;;;;;;20.38;11.88;;;;;;;5.88;100.00;100876.16;5056083;28;20021;-80
2022/03/14 10:17:57;;;;;;;21.38;11.95;;;;;;;5.88;100.00;100876.16;5055690;28;20460;-80
2022/03/14 10:20:24;;;;;;;22.15;12.43;;;;;;;5.91;100.00;100880.56;5055942;28;20040;-80
2022/03/14 10:22:50;;;;;;;23.77;13.55;;;;;;;5.98;100.00;100884.13;5036321;28;20108;-78
2022/03/14 10:25:19;;;;;;;23.15;13.20;;;;;;;5.98;100.00;100894.72;5036480;28;20017;-80
2022/03/14 10:27:47;;;;;;;25.02;13.82;;;;;;;6.02;100.00;100894.72;5054248;28;20502;-80
2022/03/14 10:30:27;;;;;;;21.20;12.77;;;;;;;6.18;100.00;100891.19;5054792;28;20140;-80
2022/03/14 10:33:11;;;;;;;24.02;13.70;;;;;;;6.20;100.00;100892.06;5037676;28;20028;-80
2022/03/14 10:35:42;;;;;;;27.25;14.95;;;;;;;6.31;100.00;100895.59;5037436;28;20021;-80
2022/03/14 10:38:09;;;;;;;25.90;14.80;;;;;;;6.35;100.00;100892.03;5036003;28;20024;-78
2022/03/14 10:40:37;;;;;;;24.30;15.02;;;;;;;6.51;100.00;100901.72;5053604;28;20048;-78
2022/03/14 10:43:08;;;;;;;26.55;15.55;;;;;;;6.51;100.00;100902.59;5035751;28;20021;-78
2022/03/14 10:45:34;;;;;;;27.27;15.90;;;;;;;6.60;100.00;100912.28;5053449;28;20417;-78
2022/03/14 10:48:02;;;;;;;25.60;15.90;;;;;;;6.63;100.00;100906.97;5053268;28;20029;-78
2022/03/14 10:50:31;;;;;;;29.08;16.02;;;;;;;6.80;100.00;100916.66;5053597;28;20025;-78
2022/03/14 10:53:20;;;;;;;25.33;15.68;;;;;;;6.73;100.00;100918.44;5036629;28;20029;-79
2022/03/14 10:55:48;;;;;;;25.77;15.93;;;;;;;6.79;100.00;100918.41;5058881;28;20021;-80
2022/03/14 10:58:23;;;;;;;24.52;15.60;;;;;;;6.77;100.00;100925.50;5040646;28;20025;-80
2022/03/14 11:00:54;;;;;;;24.42;15.77;;;;;;;6.80;100.00;100909.53;5058294;28;20496;-78
2022/03/14 11:03:30;;;;;;;30.33;17.35;;;;;;;6.90;100.00;100918.38;5058206;28;20108;-79
2022/03/14 11:06:04;;;;;;;29.40;16.35;;;;;;;6.82;100.00;100918.41;5039706;28;20013;-79
2022/03/14 11:08:35;;;;;;;29.42;17.40;;;;;;;7.01;100.00;100923.63;5040520;28;20462;-80
2022/03/14 11:11:04;;;;;;;26.15;15.85;;;;;;;7.00;100.00;100921.88;5039749;28;20033;-78
2022/03/14 11:13:30;;;;;;;29.17;16.73;;;;;;;7.09;100.00;100918.25;5058054;28;20031;-80